CheckWX is a tool to help pilots better visualize weather data.  It is not intended as a substitute for an official pre-flight weather briefing.

14:50:42 UTC

TDCF METAR
Canefield Airport
Canefield, Dominica
Current

51 mins ago

TDCF 261400Z 28003KT 9999 FEW026 28/23 Q1015
Observed
Jan-26 @ 14:00 UTC
Wind
  • 280° at 3 KTS
Visibility
10,000+ meters
Flight Rules
VFR
Cloud Levels
  • Few at 2,600' AGL
Temperature
28°C / 82°F
Dewpoint
23°C / 73°F
Heat Index
31°C / 87°F
Humidity
74%
Altimeter
29.97" Hg
Pressure
1014.92 hPa
Previous

2 hours ago

TDCF 261300Z 23001KT 9999 FEW026 27/22 Q1015
Observed
Jan-26 @ 13:00 UTC
Wind
  • 230° at 1 KTS
Visibility
10,000+ meters
Flight Rules
VFR
Cloud Levels
  • Few at 2,600' AGL
Temperature
27°C / 81°F
Dewpoint
22°C / 72°F
Heat Index
29°C / 85°F
Humidity
74%
Altimeter
29.97" Hg
Pressure
1014.92 hPa
Previous

3 hours ago

TDCF 261200Z 14004KT 9999 FEW026 25/22 Q1014
Observed
Jan-26 @ 12:00 UTC
Wind
  • 140° at 4 KTS
Visibility
10,000+ meters
Flight Rules
VFR
Cloud Levels
  • Few at 2,600' AGL
Temperature
25°C / 77°F
Dewpoint
22°C / 72°F
Humidity
83%
Altimeter
29.94" Hg
Pressure
1013.92 hPa